Time;durP1;ratioP1;P1;durP2;ratioP2;P2;SDS_P1;SDS_P2;PMS_P1;PMS_P2;Temp;Humidity;BMP_temperature;BMP_pressure;BME280_temperature;BME280_humidity;BME280_pressure;Samples;Min_cycle;Max_cycle;Signal;HPM_P1;HPM_P2
2022/03/27 00:01:31;;;;;;;9.43;6.35;;;12.00;98.10;;;;;;5054539;28;20029;-82
2022/03/27 00:03:57;;;;;;;7.95;6.20;;;12.10;98.00;;;;;;5054466;28;20111;-81
2022/03/27 00:06:22;;;;;;;9.27;6.75;;;12.00;98.00;;;;;;5054396;28;20537;-81
2022/03/27 00:08:48;;;;;;;7.43;5.47;;;12.00;98.10;;;;;;5054187;28;20048;-81
2022/03/27 00:11:29;;;;;;;7.22;5.75;;;12.20;97.80;;;;;;5054689;28;20029;-81
2022/03/27 00:14:00;;;;;;;7.75;5.75;;;12.50;97.40;;;;;;5054418;28;20021;-81
2022/03/27 00:16:26;;;;;;;9.77;6.93;;;12.50;97.10;;;;;;5054150;28;20388;-81
2022/03/27 00:18:52;;;;;;;8.63;6.35;;;12.30;97.40;;;;;;5054234;28;20059;-81
2022/03/27 00:21:20;;;;;;;9.23;6.03;;;12.30;97.60;;;;;;5053927;28;20029;-81
2022/03/27 00:23:47;;;;;;;10.23;7.10;;;12.40;97.40;;;;;;5054184;28;20107;-80
2022/03/27 00:26:13;;;;;;;8.48;6.90;;;12.10;97.40;;;;;;5054198;28;20052;-80
2022/03/27 00:28:39;;;;;;;9.35;6.57;;;11.80;98.40;;;;;;5053425;28;20114;-81
2022/03/27 00:31:07;;;;;;;9.43;7.10;;;11.80;98.60;;;;;;5054093;28;20032;-80
2022/03/27 00:33:34;;;;;;;8.10;6.80;;;11.80;98.60;;;;;;5054212;28;20074;-80
2022/03/27 00:36:01;;;;;;;8.43;6.97;;;11.80;98.60;;;;;;5054032;28;20490;-79
2022/03/27 00:38:27;;;;;;;8.35;6.60;;;11.80;98.50;;;;;;5053437;28;20527;-79
2022/03/27 00:40:53;;;;;;;9.75;7.10;;;11.90;98.40;;;;;;5054117;28;20029;-80
2022/03/27 00:43:20;;;;;;;10.43;7.97;;;11.90;98.40;;;;;;5053849;28;20036;-82
2022/03/27 00:45:46;;;;;;;9.02;7.60;;;12.00;98.20;;;;;;5053766;28;20103;-81
2022/03/27 00:48:13;;;;;;;7.95;7.15;;;12.10;97.80;;;;;;5053373;28;20029;-81
2022/03/27 00:50:39;;;;;;;9.25;7.45;;;12.00;97.90;;;;;;5053551;28;20460;-82
2022/03/27 00:53:05;;;;;;;9.90;7.60;;;12.00;97.90;;;;;;5053673;28;20082;-81
2022/03/27 00:55:30;;;;;;;10.98;7.18;;;11.90;98.00;;;;;;5053565;28;20041;-82
2022/03/27 00:57:56;;;;;;;10.75;8.55;;;12.00;98.10;;;;;;5053414;28;20048;-83
2022/03/27 01:00:46;;;;;;;11.30;9.38;;;12.00;97.90;;;;;;5053534;28;20472;-83
2022/03/27 01:03:12;;;;;;;12.18;10.68;;;11.80;98.20;;;;;;5043011;28;20389;-85
2022/03/27 01:05:39;;;;;;;12.70;10.05;;;11.60;98.30;;;;;;5053450;28;20111;-85
2022/03/27 01:08:08;;;;;;;10.80;8.30;;;11.50;98.80;;;;;;5052581;28;20045;-84
2022/03/27 01:10:34;;;;;;;11.98;9.52;;;11.60;98.90;;;;;;5053707;28;20054;-85
2022/03/27 01:13:19;;;;;;;15.57;10.93;;;11.80;98.60;;;;;;5053158;28;20028;-84
2022/03/27 01:16:02;;;;;;;15.07;10.50;;;12.00;98.20;;;;;;5053181;28;20028;-84
2022/03/27 01:18:28;;;;;;;14.13;11.98;;;11.80;98.20;;;;;;5052946;28;20063;-84
2022/03/27 01:20:53;;;;;;;14.00;11.35;;;11.60;98.60;;;;;;5053121;28;20530;-84
2022/03/27 01:23:19;;;;;;;12.18;10.35;;;11.40;99.00;;;;;;5052809;28;20025;-80
2022/03/27 01:25:45;;;;;;;13.02;10.52;;;11.50;99.10;;;;;;5052996;28;20025;-89
2022/03/27 01:28:14;;;;;;;14.45;11.40;;;11.70;98.80;;;;;;5052879;28;20540;-89
2022/03/27 01:30:41;;;;;;;12.85;11.45;;;11.80;98.40;;;;;;5052882;28;20029;-90
2022/03/27 01:33:09;;;;;;;12.60;11.00;;;11.90;98.10;;;;;;5053138;28;20029;-89
2022/03/27 01:35:36;;;;;;;13.48;10.68;;;11.80;98.30;;;;;;5053447;28;20032;-89
2022/03/27 01:38:02;;;;;;;11.98;10.40;;;11.80;98.40;;;;;;5052316;28;20033;-89
2022/03/27 01:40:28;;;;;;;12.82;10.52;;;11.90;98.40;;;;;;5052945;28;20024;-89
2022/03/27 01:42:55;;;;;;;12.15;9.93;;;11.90;98.10;;;;;;5052864;28;20024;-89
2022/03/27 01:45:21;;;;;;;12.60;10.38;;;11.90;98.00;;;;;;5051676;28;20598;-81
2022/03/27 01:47:47;;;;;;;11.70;10.50;;;11.90;97.70;;;;;;5052641;28;20025;-81
2022/03/27 01:50:13;;;;;;;12.90;11.15;;;11.90;97.90;;;;;;5052424;28;20116;-81
2022/03/27 01:52:38;;;;;;;11.23;10.00;;;11.80;97.90;;;;;;5052439;28;20039;-81
2022/03/27 01:55:13;;;;;;;13.30;11.90;;;11.90;97.90;;;;;;5052536;28;20064;-81
2022/03/27 01:57:41;;;;;;;12.85;10.63;;;11.90;97.80;;;;;;5052739;28;20045;-81
2022/03/27 02:00:09;;;;;;;13.75;11.13;;;11.60;98.40;;;;;;5052429;28;20067;-83
2022/03/27 02:02:35;;;;;;;14.30;11.40;;;11.60;98.60;;;;;;5052523;28;20373;-85
2022/03/27 02:05:01;;;;;;;12.27;10.98;;;11.60;98.60;;;;;;5052412;28;20476;-85
2022/03/27 02:07:27;;;;;;;11.98;10.25;;;11.50;98.80;;;;;;5052726;28;20055;-84
2022/03/27 02:09:52;;;;;;;11.40;10.05;;;11.70;98.70;;;;;;5052377;28;20527;-84
2022/03/27 02:12:18;;;;;;;11.50;10.23;;;11.70;98.30;;;;;;5052888;28;20025;-84
2022/03/27 02:14:43;;;;;;;10.68;9.57;;;11.80;98.30;;;;;;5052214;28;20029;-84
2022/03/27 02:17:10;;;;;;;11.70;9.98;;;11.70;98.00;;;;;;5056543;28;20037;-85
2022/03/27 02:19:36;;;;;;;11.57;10.38;;;11.80;97.90;;;;;;5056161;28;20065;-84
2022/03/27 02:22:02;;;;;;;11.32;10.02;;;11.90;97.80;;;;;;5056779;28;20432;-84
2022/03/27 02:24:28;;;;;;;10.60;9.38;;;11.70;97.50;;;;;;5055718;28;20036;-84
2022/03/27 02:26:54;;;;;;;9.90;8.82;;;11.50;97.70;;;;;;5056108;28;20141;-84
2022/03/27 02:29:20;;;;;;;11.00;9.82;;;11.50;97.70;;;;;;5056046;28;20036;-82
2022/03/27 02:31:46;;;;;;;15.00;10.68;;;11.50;97.80;;;;;;5056800;28;20033;-83
2022/03/27 02:34:13;;;;;;;13.00;10.90;;;11.30;98.00;;;;;;5055894;28;20032;-83
2022/03/27 02:36:38;;;;;;;13.20;10.57;;;11.20;98.50;;;;;;5056481;28;20108;-83
2022/03/27 02:39:04;;;;;;;12.77;10.15;;;11.20;98.60;;;;;;5055931;28;20163;-83
2022/03/27 02:41:29;;;;;;;11.70;9.48;;;11.30;98.40;;;;;;5056279;28;20021;-83
2022/03/27 02:43:55;;;;;;;12.52;10.27;;;11.30;98.40;;;;;;5056331;28;20152;-83
2022/03/27 02:46:21;;;;;;;13.50;11.15;;;11.30;98.30;;;;;;5056258;28;20042;-82
2022/03/27 02:48:46;;;;;;;12.15;9.70;;;11.10;98.40;;;;;;5055428;28;20039;-82
2022/03/27 02:51:12;;;;;;;12.52;9.15;;;11.10;98.60;;;;;;5055636;28;20502;-83
2022/03/27 02:53:37;;;;;;;10.50;9.13;;;11.30;98.30;;;;;;5055777;28;20031;-83
2022/03/27 02:56:04;;;;;;;12.25;9.82;;;11.50;98.10;;;;;;5055926;28;20108;-82
2022/03/27 02:58:30;;;;;;;11.32;10.13;;;11.60;97.60;;;;;;5055435;28;20037;-82
2022/03/27 03:00:56;;;;;;;9.27;8.35;;;11.60;97.70;;;;;;5055695;28;20024;-82
2022/03/27 03:03:22;;;;;;;11.85;9.98;;;11.70;97.50;;;;;;5055779;28;20033;-82
2022/03/27 03:05:48;;;;;;;12.23;9.52;;;11.80;97.10;;;;;;5055662;28;20469;-82
2022/03/27 03:08:17;;;;;;;13.45;10.38;;;11.80;97.00;;;;;;5054780;28;20492;-83
2022/03/27 03:10:44;;;;;;;13.50;10.63;;;11.80;96.80;;;;;;5054196;28;20051;-83
2022/03/27 03:13:10;;;;;;;15.00;9.98;;;11.60;96.70;;;;;;5054289;28;20037;-83
2022/03/27 03:15:37;;;;;;;15.02;10.30;;;11.60;96.70;;;;;;5054328;28;20048;-84
2022/03/27 03:18:04;;;;;;;13.90;11.38;;;11.60;96.60;;;;;;5053961;28;20099;-82
2022/03/27 03:20:30;;;;;;;16.20;12.43;;;11.60;96.50;;;;;;5038552;28;20059;-82
2022/03/27 03:22:56;;;;;;;18.02;13.15;;;11.30;96.90;;;;;;5054055;28;20415;-82
2022/03/27 03:25:23;;;;;;;18.85;12.38;;;10.80;97.80;;;;;;5053717;28;20039;-82
2022/03/27 03:27:49;;;;;;;19.50;12.98;;;10.60;98.50;;;;;;5054173;28;20357;-82
2022/03/27 03:30:16;;;;;;;20.58;14.13;;;10.60;98.40;;;;;;5053755;28;20036;-82
2022/03/27 03:32:45;;;;;;;20.33;13.10;;;10.60;98.40;;;;;;5042689;28;20025;-82
2022/03/27 03:35:11;;;;;;;20.50;13.55;;;10.60;98.50;;;;;;5053435;28;20032;-82
2022/03/27 03:37:37;;;;;;;22.17;14.23;;;10.90;98.30;;;;;;5054005;28;20033;-82
2022/03/27 03:40:07;;;;;;;23.55;14.98;;;11.00;97.80;;;;;;5053850;28;20025;-82
2022/03/27 03:42:33;;;;;;;26.52;15.50;;;11.10;97.70;;;;;;5054213;28;20413;-81
2022/03/27 03:44:59;;;;;;;22.42;14.10;;;11.00;97.30;;;;;;5053670;28;20114;-80
2022/03/27 03:47:25;;;;;;;24.50;15.00;;;11.00;97.50;;;;;;5053682;28;20052;-80
2022/03/27 03:49:53;;;;;;;26.83;16.98;;;11.20;97.40;;;;;;5053599;28;20114;-81
2022/03/27 03:52:19;;;;;;;24.63;15.07;;;11.20;96.90;;;;;;5052244;28;20021;-80
2022/03/27 03:54:44;;;;;;;26.52;15.73;;;11.00;97.10;;;;;;5053204;28;20037;-81
2022/03/27 03:57:10;;;;;;;29.05;16.05;;;11.20;97.40;;;;;;5053329;28;20134;-81
2022/03/27 03:59:36;;;;;;;29.88;16.60;;;11.00;97.10;;;;;;5053371;28;20032;-80
2022/03/27 04:02:07;;;;;;;25.25;14.88;;;10.80;97.50;;;;;;5053872;28;20108;-81
2022/03/27 04:04:34;;;;;;;22.23;15.25;;;10.70;97.50;;;;;;5053593;28;20039;-81
2022/03/27 04:07:00;;;;;;;31.40;16.10;;;10.70;97.70;;;;;;5053865;28;20369;-81
2022/03/27 04:09:27;;;;;;;26.55;16.38;;;10.80;97.60;;;;;;5016038;28;1100473;-80
2022/03/27 04:11:52;;;;;;;26.60;16.30;;;10.80;97.60;;;;;;5054458;28;20365;-80
2022/03/27 04:14:18;;;;;;;24.92;15.65;;;10.80;97.70;;;;;;5053989;28;20094;-81
2022/03/27 04:16:44;;;;;;;28.15;16.33;;;10.80;97.70;;;;;;5054237;28;20029;-80
2022/03/27 04:19:11;;;;;;;26.23;15.80;;;10.90;97.40;;;;;;5054281;28;20060;-80
2022/03/27 04:21:37;;;;;;;21.60;13.98;;;10.90;97.30;;;;;;5054398;28;20025;-81
2022/03/27 04:24:03;;;;;;;26.15;16.52;;;11.00;97.40;;;;;;5054195;28;20029;-82
2022/03/27 04:26:28;;;;;;;27.95;16.90;;;11.10;96.80;;;;;;5054092;28;20151;-82
2022/03/27 04:28:54;;;;;;;24.63;15.70;;;11.00;96.70;;;;;;5053483;28;20025;-81
2022/03/27 04:31:20;;;;;;;24.73;15.50;;;11.00;97.00;;;;;;5053956;28;20029;-81
2022/03/27 04:33:45;;;;;;;24.60;16.58;;;10.90;96.80;;;;;;5054146;28;20533;-81
2022/03/27 04:36:11;;;;;;;26.63;16.05;;;11.00;96.70;;;;;;5053820;28;20419;-81
2022/03/27 04:38:37;;;;;;;27.50;16.75;;;11.00;96.70;;;;;;5053218;28;20059;-81
2022/03/27 04:41:03;;;;;;;24.42;14.38;;;11.00;96.60;;;;;;5054037;28;20054;-84
2022/03/27 04:43:29;;;;;;;25.90;15.73;;;11.10;96.80;;;;;;5053324;28;20449;-84
2022/03/27 04:45:55;;;;;;;25.83;16.10;;;11.20;96.60;;;;;;5054098;28;20029;-83
2022/03/27 04:48:20;;;;;;;27.88;16.70;;;11.20;96.20;;;;;;5053416;28;20538;-84
2022/03/27 04:50:46;;;;;;;28.10;17.10;;;11.10;96.30;;;;;;5053504;28;20100;-85
2022/03/27 04:53:12;;;;;;;27.52;17.20;;;11.00;96.60;;;;;;5053486;28;20032;-85
2022/03/27 04:55:38;;;;;;;27.02;16.30;;;10.90;96.60;;;;;;5053100;28;20365;-84
2022/03/27 04:58:08;;;;;;;25.13;15.93;;;10.90;96.50;;;;;;5053102;28;20063;-85
2022/03/27 05:00:33;;;;;;;26.85;16.55;;;10.70;96.50;;;;;;5042207;28;20029;-84
2022/03/27 05:02:59;;;;;;;25.05;15.70;;;10.40;97.10;;;;;;5052782;28;20032;-84
2022/03/27 05:05:24;;;;;;;26.40;16.77;;;10.30;97.60;;;;;;5053269;28;20032;-85
2022/03/27 05:07:50;;;;;;;21.80;14.05;;;10.30;97.50;;;;;;5053390;28;20388;-85
2022/03/27 05:10:16;;;;;;;22.05;14.02;;;10.30;97.40;;;;;;5053028;28;20037;-85
2022/03/27 05:12:41;;;;;;;22.10;14.07;;;10.40;97.00;;;;;;5053569;28;20025;-85
2022/03/27 05:15:09;;;;;;;21.48;13.55;;;10.20;96.50;;;;;;5053117;28;20036;-85
2022/03/27 05:17:45;;;;;;;20.65;12.93;;;10.20;96.80;;;;;;5052453;28;20395;-85
2022/03/27 05:20:10;;;;;;;22.83;13.95;;;10.30;96.40;;;;;;5053115;28;20102;-85
2022/03/27 05:22:36;;;;;;;21.27;14.10;;;10.20;96.20;;;;;;5053379;28;20476;-85
2022/03/27 05:25:02;;;;;;;21.80;13.55;;;9.90;96.40;;;;;;5052722;28;20025;-85
2022/03/27 05:27:27;;;;;;;18.20;13.20;;;10.00;96.60;;;;;;5053180;28;20103;-84
2022/03/27 05:29:53;;;;;;;18.75;13.15;;;10.00;96.30;;;;;;5052710;28;20027;-84
2022/03/27 05:32:18;;;;;;;18.25;12.23;;;10.10;96.20;;;;;;5052524;28;20511;-83
2022/03/27 05:34:44;;;;;;;19.42;12.57;;;10.00;96.00;;;;;;5052483;28;20086;-82
2022/03/27 05:37:09;;;;;;;17.95;13.15;;;10.20;95.80;;;;;;5052496;28;20025;-83
2022/03/27 05:39:35;;;;;;;19.63;13.10;;;10.20;95.00;;;;;;5052005;28;20056;-82
2022/03/27 05:42:01;;;;;;;20.15;13.20;;;10.20;95.20;;;;;;5053118;28;20078;-81
2022/03/27 05:44:27;;;;;;;20.48;13.60;;;10.10;95.00;;;;;;5052852;28;20029;-83
2022/03/27 05:46:52;;;;;;;20.83;13.00;;;10.00;95.00;;;;;;5052549;28;20503;-81
2022/03/27 05:49:18;;;;;;;20.88;13.35;;;9.80;95.50;;;;;;5052532;28;20309;-81
2022/03/27 05:51:44;;;;;;;19.50;12.40;;;9.80;95.60;;;;;;5052228;28;20048;-81
2022/03/27 05:54:10;;;;;;;18.83;12.63;;;9.80;95.70;;;;;;5052660;28;20017;-82
2022/03/27 05:56:36;;;;;;;19.33;12.45;;;10.00;95.50;;;;;;5052762;28;20029;-82
2022/03/27 05:59:02;;;;;;;21.13;13.35;;;10.10;95.30;;;;;;5052570;28;20047;-82
2022/03/27 06:01:27;;;;;;;20.20;13.23;;;10.10;95.00;;;;;;5052690;28;20025;-81
2022/03/27 06:03:53;;;;;;;25.70;14.57;;;10.10;94.80;;;;;;5052583;28;20057;-81
2022/03/27 06:06:18;;;;;;;25.38;14.57;;;10.00;94.70;;;;;;5052118;28;20025;-82
2022/03/27 06:08:44;;;;;;;23.65;15.00;;;9.70;95.20;;;;;;5052355;28;20037;-81
2022/03/27 06:11:10;;;;;;;25.70;16.10;;;9.50;95.80;;;;;;5052432;28;20025;-81
2022/03/27 06:13:35;;;;;;;27.35;16.65;;;9.40;96.00;;;;;;5052784;28;20021;-81
2022/03/27 06:16:01;;;;;;;28.77;15.57;;;9.10;96.60;;;;;;5052053;28;20056;-81
2022/03/27 06:18:27;;;;;;;29.20;15.40;;;8.90;97.30;;;;;;5052307;28;20037;-81
2022/03/27 06:20:53;;;;;;;22.13;13.63;;;9.00;97.40;;;;;;5052567;28;20095;-91
2022/03/27 06:23:18;;;;;;;30.65;15.30;;;9.10;97.30;;;;;;5052479;28;20039;-83
2022/03/27 06:25:44;;;;;;;24.48;15.45;;;9.40;96.90;;;;;;5052370;28;20021;-83
2022/03/27 06:28:12;;;;;;;23.30;14.85;;;9.50;96.40;;;;;;5052128;28;20123;-81
2022/03/27 06:30:38;;;;;;;27.60;15.82;;;9.20;96.60;;;;;;5052188;28;20426;-81
2022/03/27 06:33:04;;;;;;;23.83;15.45;;;9.00;97.10;;;;;;5052653;28;20021;-81
2022/03/27 06:35:30;;;;;;;27.95;15.95;;;8.90;97.30;;;;;;5052414;28;20021;-81
2022/03/27 06:37:56;;;;;;;27.20;15.90;;;8.90;97.50;;;;;;5052017;28;20380;-81
2022/03/27 06:40:22;;;;;;;29.85;15.90;;;8.90;97.60;;;;;;5051895;28;20438;-81
2022/03/27 06:42:49;;;;;;;24.50;14.80;;;9.00;97.40;;;;;;5052771;28;20033;-81
2022/03/27 06:45:16;;;;;;;24.50;15.18;;;9.20;97.30;;;;;;5052045;28;20025;-81
2022/03/27 06:47:44;;;;;;;25.00;15.82;;;9.30;97.00;;;;;;5032822;28;20040;-81
2022/03/27 06:50:11;;;;;;;25.15;14.45;;;9.50;96.60;;;;;;5051213;28;20025;-80
2022/03/27 06:52:37;;;;;;;24.10;15.05;;;9.60;96.30;;;;;;5052780;28;20035;-80
2022/03/27 06:55:05;;;;;;;25.10;14.68;;;9.70;96.20;;;;;;5052673;28;20103;-80
2022/03/27 06:57:30;;;;;;;29.02;14.98;;;9.90;96.00;;;;;;5052290;28;20033;-79
2022/03/27 07:05:24;;;;;;;23.92;14.45;;;10.10;95.20;;;;;;5039064;28;20043;-79
2022/03/27 07:07:50;;;;;;;19.92;12.77;;;10.30;94.80;;;;;;5055219;28;20037;-80
2022/03/27 07:10:16;;;;;;;20.70;13.43;;;10.30;94.70;;;;;;5055507;28;20029;-84
2022/03/27 07:12:42;;;;;;;25.08;13.88;;;10.30;94.10;;;;;;5055444;28;20036;-81
2022/03/27 07:15:09;;;;;;;23.20;13.07;;;10.30;94.10;;;;;;5055784;28;20061;-80
2022/03/27 07:17:47;;;;;;;20.70;13.10;;;10.40;94.20;;;;;;5055335;28;20033;-80
2022/03/27 07:20:17;;;;;;;21.17;13.50;;;10.30;93.60;;;;;;5055660;28;20052;-81
2022/03/27 07:22:43;;;;;;;22.63;12.93;;;10.40;93.40;;;;;;5055752;28;20036;-84
2022/03/27 07:25:09;;;;;;;22.40;13.77;;;10.50;93.60;;;;;;5054840;28;20029;-82
2022/03/27 07:27:37;;;;;;;21.98;14.00;;;10.60;93.30;;;;;;5055514;28;20045;-82
2022/03/27 07:30:05;;;;;;;20.67;14.32;;;10.50;93.30;;;;;;5055081;28;20029;-81
2022/03/27 07:32:30;;;;;;;21.48;13.43;;;10.40;93.60;;;;;;5055040;28;20032;-83
2022/03/27 07:34:57;;;;;;;22.02;14.05;;;10.40;93.90;;;;;;5054879;28;20078;-79
2022/03/27 07:37:23;;;;;;;20.77;13.32;;;10.60;93.30;;;;;;5054706;28;20040;-81
2022/03/27 07:39:49;;;;;;;19.73;12.80;;;10.60;93.00;;;;;;5055096;28;20025;-83
2022/03/27 07:42:15;;;;;;;22.42;14.25;;;10.70;92.80;;;;;;5055128;28;20353;-82
2022/03/27 07:44:41;;;;;;;26.73;15.25;;;10.90;92.50;;;;;;5053959;28;20032;-80
2022/03/27 07:47:06;;;;;;;24.75;14.43;;;10.80;92.50;;;;;;5055266;28;20017;-79
2022/03/27 07:49:32;;;;;;;24.70;15.02;;;10.80;92.80;;;;;;5054435;28;20025;-77
2022/03/27 07:52:00;;;;;;;24.40;15.27;;;10.80;92.60;;;;;;5053980;28;20027;-76
2022/03/27 07:54:26;;;;;;;26.20;14.85;;;10.70;92.70;;;;;;5053986;28;20033;-78
2022/03/27 07:56:52;;;;;;;22.27;13.55;;;10.60;92.70;;;;;;5054518;28;20078;-76
2022/03/27 07:59:18;;;;;;;23.30;13.30;;;10.80;92.90;;;;;;5053220;28;20032;-77
2022/03/27 08:01:43;;;;;;;22.90;14.68;;;11.00;92.20;;;;;;5052919;28;20053;-79
2022/03/27 08:04:09;;;;;;;22.98;14.38;;;11.10;91.90;;;;;;5053106;28;20025;-76
2022/03/27 08:06:36;;;;;;;22.70;14.25;;;11.10;91.80;;;;;;5054241;28;20100;-77
2022/03/27 08:09:06;;;;;;;23.20;14.60;;;11.30;91.60;;;;;;5054345;28;20052;-83
2022/03/27 08:11:33;;;;;;;24.27;13.75;;;11.50;91.40;;;;;;5054366;28;20066;-79
2022/03/27 08:13:58;;;;;;;19.48;14.30;;;11.60;90.90;;;;;;5053122;28;20100;-81
2022/03/27 08:16:26;;;;;;;21.60;14.45;;;11.60;88.70;;;;;;5054595;28;20116;-79
2022/03/27 08:18:51;;;;;;;18.40;12.77;;;11.40;89.30;;;;;;5053692;28;20041;-81
2022/03/27 08:21:17;;;;;;;20.67;13.73;;;11.40;89.30;;;;;;5054353;28;20081;-77
2022/03/27 08:23:43;;;;;;;17.95;13.13;;;11.60;89.00;;;;;;5053526;28;20120;-79
2022/03/27 08:28:53;;;;;;;22.38;14.00;;;11.90;87.50;;;;;;5054031;28;20052;-78
2022/03/27 08:31:18;;;;;;;22.48;13.35;;;11.90;86.90;;;;;;5053908;28;20456;-79
2022/03/27 08:33:46;;;;;;;19.23;12.68;;;11.90;86.10;;;;;;5053338;28;20036;-84
2022/03/27 08:36:12;;;;;;;20.83;13.43;;;11.90;88.00;;;;;;5054468;28;20028;-82
2022/03/27 08:38:38;;;;;;;21.23;13.55;;;12.30;86.50;;;;;;5054075;28;20155;-80
2022/03/27 08:41:05;;;;;;;17.75;11.65;;;12.40;83.20;;;;;;5053898;28;20024;-79
2022/03/27 08:43:33;;;;;;;21.00;14.10;;;12.40;83.40;;;;;;5053428;28;20392;-79
2022/03/27 08:45:59;;;;;;;17.13;11.70;;;12.50;83.60;;;;;;5053775;28;20033;-82
2022/03/27 08:48:33;;;;;;;15.05;9.80;;;12.80;81.80;;;;;;5052321;28;20028;-82
2022/03/27 08:51:27;;;;;;;15.65;10.77;;;13.10;78.70;;;;;;5053546;28;20021;-79
2022/03/27 08:54:02;;;;;;;16.58;10.63;;;13.20;77.10;;;;;;5052080;28;20479;-79
2022/03/27 08:56:29;;;;;;;17.63;11.20;;;13.30;76.20;;;;;;5050914;28;20055;-80
2022/03/27 08:58:57;;;;;;;16.02;11.07;;;13.40;76.00;;;;;;5052253;28;20043;-82
2022/03/27 09:01:23;;;;;;;16.92;11.35;;;13.50;76.10;;;;;;5052531;28;20037;-81
2022/03/27 09:03:48;;;;;;;13.38;9.55;;;13.50;72.80;;;;;;5053054;28;20487;-85
2022/03/27 09:06:14;;;;;;;17.98;11.52;;;13.40;73.90;;;;;;5052002;28;20063;-80
2022/03/27 09:08:40;;;;;;;18.05;11.15;;;13.70;72.30;;;;;;5051681;28;20041;-80
2022/03/27 09:11:06;;;;;;;17.75;11.65;;;13.60;71.80;;;;;;5052400;28;20032;-81
2022/03/27 09:13:32;;;;;;;14.55;9.88;;;13.80;72.70;;;;;;5051723;28;20072;-80
2022/03/27 09:15:58;;;;;;;14.93;10.50;;;14.00;71.20;;;;;;5052209;28;20025;-76
2022/03/27 09:18:24;;;;;;;14.85;10.73;;;14.30;69.90;;;;;;5052977;28;20453;-80
2022/03/27 09:20:54;;;;;;;16.92;11.00;;;14.30;69.70;;;;;;5052854;28;20108;-77
2022/03/27 09:23:22;;;;;;;16.02;9.90;;;14.20;67.60;;;;;;5052952;28;20491;-76
2022/03/27 09:25:51;;;;;;;14.48;9.38;;;14.00;69.70;;;;;;5049973;28;20027;-78
2022/03/27 09:28:36;;;;;;;14.68;9.88;;;14.30;68.20;;;;;;5052640;28;20590;-77
2022/03/27 09:31:20;;;;;;;14.18;9.63;;;14.60;66.50;;;;;;5053112;28;20036;-77
2022/03/27 09:33:46;;;;;;;13.45;8.38;;;14.70;65.00;;;;;;5053195;28;20028;-78
2022/03/27 09:36:24;;;;;;;14.25;8.68;;;14.70;63.90;;;;;;5052652;28;20171;-76
2022/03/27 09:39:16;;;;;;;14.07;8.60;;;14.70;60.90;;;;;;5052320;28;20162;-76
2022/03/27 09:41:44;;;;;;;12.85;7.88;;;14.50;60.10;;;;;;5044084;28;20041;-77
2022/03/27 09:44:12;;;;;;;11.60;8.38;;;14.50;62.80;;;;;;5052495;28;20476;-79
2022/03/27 09:46:57;;;;;;;12.65;8.60;;;14.60;62.40;;;;;;5052747;28;20415;-77
2022/03/27 09:49:35;;;;;;;12.45;8.30;;;14.80;61.40;;;;;;5052030;28;20028;-78
2022/03/27 09:52:17;;;;;;;12.48;7.75;;;15.00;60.70;;;;;;5052806;28;20423;-77
2022/03/27 09:54:51;;;;;;;13.15;8.45;;;15.10;60.60;;;;;;5052503;28;20032;-77
2022/03/27 09:57:37;;;;;;;12.25;7.72;;;15.20;60.00;;;;;;5052471;28;20025;-77
2022/03/27 10:00:11;;;;;;;18.42;12.40;;;15.50;60.30;;;;;;5052089;28;20515;-77
2022/03/27 10:02:38;;;;;;;10.93;8.15;;;15.80;64.80;;;;;;5052238;28;20052;-77
2022/03/27 10:05:05;;;;;;;11.38;7.93;;;16.20;62.60;;;;;;5051793;28;20431;-77
2022/03/27 10:07:37;;;;;;;14.82;8.52;;;16.60;58.80;;;;;;5052507;28;20059;-76
2022/03/27 10:10:05;;;;;;;9.73;6.18;;;16.50;55.50;;;;;;5052058;28;20029;-77
2022/03/27 10:12:34;;;;;;;10.52;7.45;;;16.40;56.60;;;;;;5052272;28;20056;-77
2022/03/27 10:15:14;;;;;;;10.82;6.68;;;16.50;54.70;;;;;;5051030;28;20047;-79
2022/03/27 10:17:45;;;;;;;10.52;6.68;;;16.40;54.50;;;;;;5048899;28;20033;-80
2022/03/27 10:20:16;;;;;;;13.70;9.20;;;16.50;55.70;;;;;;5052056;28;20025;-77
2022/03/27 10:22:47;;;;;;;13.00;8.93;;;16.60;56.60;;;;;;5051119;28;20025;-80
2022/03/27 10:25:16;;;;;;;14.88;9.63;;;16.90;59.50;;;;;;5050456;28;20508;-80
2022/03/27 10:27:44;;;;;;;12.77;6.72;;;17.20;58.50;;;;;;5033158;28;20396;-80
2022/03/27 10:30:11;;;;;;;10.02;6.70;;;17.30;54.60;;;;;;5052167;28;20021;-79
2022/03/27 10:32:39;;;;;;;12.35;6.78;;;17.20;51.70;;;;;;5052078;28;20059;-79
2022/03/27 10:35:29;;;;;;;9.75;6.07;;;17.00;51.70;;;;;;5051772;28;20480;-78
2022/03/27 10:38:14;;;;;;;7.40;3.97;;;17.00;52.10;;;;;;5038781;28;20033;-81
2022/03/27 10:40:59;;;;;;;9.05;5.35;;;17.10;49.00;;;;;;5055650;28;20053;-79
2022/03/27 10:44:01;;;;;;;12.07;5.70;;;17.00;48.30;;;;;;5054931;28;20033;-78
2022/03/27 10:46:28;;;;;;;10.52;5.07;;;16.80;49.70;;;;;;5047431;28;20025;-79
2022/03/27 10:49:13;;;;;;;10.07;5.47;;;16.90;50.70;;;;;;5055762;28;20472;-78
2022/03/27 10:51:44;;;;;;;15.23;9.57;;;17.20;49.90;;;;;;5055953;28;20029;-78
2022/03/27 10:54:19;;;;;;;9.50;6.05;;;17.40;54.90;;;;;;5056179;28;20132;-77
2022/03/27 10:56:50;;;;;;;9.50;5.57;;;17.60;50.90;;;;;;5055915;28;20037;-78
2022/03/27 10:59:24;;;;;;;8.27;4.88;;;17.60;50.40;;;;;;5055496;28;20116;-78
2022/03/27 11:01:55;;;;;;;8.93;4.63;;;17.80;48.60;;;;;;5055922;28;20037;-77
2022/03/27 11:04:25;;;;;;;9.45;5.50;;;18.00;49.70;;;;;;5055811;28;20373;-77
2022/03/27 11:07:11;;;;;;;7.32;4.63;;;18.40;49.40;;;;;;5055716;28;20025;-77
2022/03/27 11:09:39;;;;;;;12.02;7.68;;;18.60;48.60;;;;;;5052786;28;20534;-77
2022/03/27 11:12:24;;;;;;;10.30;5.80;;;18.80;49.30;;;;;;5055418;28;20028;-77
2022/03/27 11:14:52;;;;;;;8.55;3.95;;;18.70;47.50;;;;;;5045047;28;20029;-78
2022/03/27 11:17:43;;;;;;;7.70;4.57;;;18.70;48.70;;;;;;5055393;28;20084;-77
2022/03/27 11:20:12;;;;;;;8.50;4.13;;;18.70;46.60;;;;;;5054108;28;20037;-78
2022/03/27 11:22:54;;;;;;;10.77;7.13;;;18.90;48.10;;;;;;5055107;28;20376;-77
2022/03/27 11:25:38;;;;;;;10.27;7.22;;;19.10;49.90;;;;;;5055125;28;20033;-77
2022/03/27 11:28:08;;;;;;;11.77;7.70;;;19.20;50.00;;;;;;5054649;28;20504;-78
2022/03/27 11:30:58;;;;;;;7.47;4.50;;;19.30;51.20;;;;;;5039147;28;20037;-77
2022/03/27 11:33:29;;;;;;;9.45;4.25;;;19.40;47.00;;;;;;5054774;28;20857;-84
2022/03/27 11:36:09;;;;;;;6.63;4.72;;;19.30;46.00;;;;;;5055251;28;20032;-78
2022/03/27 11:39:08;;;;;;;9.95;3.80;;;19.50;47.20;;;;;;5054918;28;20040;-79
2022/03/27 11:41:42;;;;;;;9.80;4.70;;;19.50;45.00;;;;;;5055153;28;20433;-80
2022/03/27 11:45:13;;;;;;;7.90;4.50;;;19.60;45.80;;;;;;5055116;28;20043;-79
2022/03/27 11:47:34;;;;;;;7.55;3.67;;;20.00;45.20;;;;;;5033527;28;20384;-80
2022/03/27 11:49:59;;;;;;;6.50;3.33;;;19.70;44.60;;;;;;5052492;28;20081;-79
2022/03/27 11:52:25;;;;;;;10.70;4.00;;;19.70;45.70;;;;;;5055252;28;20025;-79
2022/03/27 11:55:10;;;;;;;5.47;3.13;;;19.80;44.70;;;;;;5054567;28;20106;-79
2022/03/27 11:58:00;;;;;;;5.57;3.03;;;19.90;43.00;;;;;;5054650;28;20055;-84
2022/03/27 12:00:39;;;;;;;9.05;3.17;;;19.90;43.50;;;;;;5053597;28;20040;-83
2022/03/27 12:03:14;;;;;;;6.25;3.35;;;19.70;44.20;;;;;;5054665;28;20037;-83
2022/03/27 12:05:40;;;;;;;7.03;3.30;;;19.70;44.00;;;;;;5042586;28;20049;-84
2022/03/27 12:08:07;;;;;;;7.07;2.72;;;19.70;44.60;;;;;;5054354;28;20484;-82
2022/03/27 12:11:04;;;;;;;7.10;3.58;;;19.80;44.50;;;;;;5041007;28;20036;-86
2022/03/27 12:13:36;;;;;;;8.02;5.43;;;20.10;45.50;;;;;;5052453;28;20126;-83
2022/03/27 12:16:02;;;;;;;12.75;6.40;;;20.50;45.60;;;;;;5054917;28;20384;-89
2022/03/27 12:18:34;;;;;;;13.30;5.55;;;20.40;46.90;;;;;;5054221;28;20040;-85
2022/03/27 12:21:06;;;;;;;8.57;4.85;;;20.50;47.80;;;;;;5045056;28;20100;-89
2022/03/27 12:23:34;;;;;;;4.88;2.85;;;20.60;44.80;;;;;;5054436;28;20017;-86
2022/03/27 12:29:39;;;;;;;12.18;4.70;;;20.50;44.80;;;;;;5054161;28;20029;-89
2022/03/27 12:31:36;;;;;;;7.78;5.22;;;20.90;45.80;;;;;;5047153;28;20089;-88
2022/03/27 12:34:03;;;;;;;11.45;4.72;;;21.10;45.70;;;;;;5054251;28;20029;-88
2022/03/27 12:36:28;;;;;;;9.63;4.45;;;21.20;46.20;;;;;;5054218;28;20033;-87
2022/03/27 12:38:54;;;;;;;11.27;4.28;;;21.30;45.00;;;;;;5053756;28;20377;-84
2022/03/27 12:41:37;;;;;;;9.70;5.65;;;21.50;44.90;;;;;;5054164;28;20060;-88
2022/03/27 12:44:03;;;;;;;8.68;5.07;;;21.60;43.80;;;;;;5054271;28;20104;-87
2022/03/27 12:46:31;;;;;;;8.73;5.18;;;21.60;44.80;;;;;;5053730;28;20053;-84
2022/03/27 12:49:09;;;;;;;9.65;5.07;;;21.50;45.80;;;;;;5053624;28;20365;-80
2022/03/27 12:51:35;;;;;;;9.63;5.00;;;21.50;45.50;;;;;;5053553;28;20029;-80
2022/03/27 12:54:07;;;;;;;9.35;4.72;;;21.60;45.10;;;;;;5053692;28;20090;-78